createdAt,value
2018-08-11T00:00:31.983Z,16.60
2018-08-11T00:03:00.328Z,16.60
2018-08-11T00:05:28.583Z,16.60
2018-08-11T00:07:56.878Z,16.70
2018-08-11T00:10:25.137Z,16.70
2018-08-11T00:12:53.413Z,16.60
2018-08-11T00:15:21.894Z,16.60
2018-08-11T00:17:50.140Z,16.60
2018-08-11T00:20:23.573Z,16.70
2018-08-11T00:22:51.808Z,16.70
2018-08-11T00:25:20.092Z,16.70
2018-08-11T00:27:48.347Z,16.80
2018-08-11T00:30:18.145Z,16.90
2018-08-11T00:32:46.413Z,16.90
2018-08-11T00:35:15.360Z,16.90
2018-08-11T00:37:44.084Z,16.90
2018-08-11T00:40:14.481Z,16.90
2018-08-11T00:42:44.078Z,17.00
2018-08-11T00:45:13.532Z,17.00
2018-08-11T00:47:41.777Z,17.00
2018-08-11T00:50:16.133Z,16.90
2018-08-11T00:52:44.467Z,16.90
2018-08-11T00:55:13.761Z,16.90
2018-08-11T00:57:42.195Z,16.90
2018-08-11T01:00:18.246Z,17.00
2018-08-11T01:02:46.530Z,17.10
2018-08-11T01:05:16.697Z,17.10
2018-08-11T01:07:45.599Z,17.20
2018-08-11T01:10:14.268Z,17.20
2018-08-11T01:12:43.500Z,17.20
2018-08-11T01:15:14.131Z,17.30
2018-08-11T01:17:42.452Z,17.30
2018-08-11T01:20:11.551Z,17.20
2018-08-11T01:22:40.727Z,17.20
2018-08-11T01:25:09.810Z,17.30
2018-08-11T01:27:38.072Z,17.30
2018-08-11T01:30:08.505Z,17.30
2018-08-11T01:32:36.726Z,17.40
2018-08-11T01:35:05.748Z,17.40
2018-08-11T01:37:34.016Z,17.40
2018-08-11T01:40:02.367Z,17.50
2018-08-11T01:42:30.667Z,17.50
2018-08-11T01:44:58.917Z,17.40
2018-08-11T01:47:27.161Z,17.50
2018-08-11T01:49:55.422Z,17.50
2018-08-11T01:52:23.650Z,17.60
2018-08-11T01:54:52.710Z,17.60
2018-08-11T01:57:20.984Z,17.60
2018-08-11T01:59:49.226Z,17.60
2018-08-11T02:02:17.608Z,17.60
2018-08-11T02:04:45.861Z,17.70
2018-08-11T02:07:14.111Z,17.60
2018-08-11T02:09:42.474Z,17.60
2018-08-11T02:12:10.921Z,17.60
2018-08-11T02:14:39.161Z,17.60
2018-08-11T02:17:07.474Z,17.60
2018-08-11T02:19:35.841Z,17.60
2018-08-11T02:22:04.368Z,17.60
2018-08-11T02:24:32.918Z,17.60
2018-08-11T02:27:01.228Z,17.60
2018-08-11T02:29:29.500Z,17.50
2018-08-11T02:31:57.760Z,17.50
2018-08-11T02:34:26.092Z,17.40
2018-08-11T02:36:54.416Z,17.40
2018-08-11T02:39:22.683Z,17.40
2018-08-11T02:41:50.915Z,17.50
2018-08-11T02:44:19.145Z,17.40
2018-08-11T02:46:47.412Z,17.40
2018-08-11T02:49:15.647Z,17.30
2018-08-11T02:51:43.934Z,17.30
2018-08-11T02:54:12.225Z,17.30
2018-08-11T02:56:40.432Z,17.30
2018-08-11T02:59:08.660Z,17.20
2018-08-11T03:01:36.918Z,17.20
2018-08-11T03:04:05.222Z,17.20
2018-08-11T03:06:33.573Z,17.20
2018-08-11T03:09:01.835Z,17.20
2018-08-11T03:11:30.109Z,17.10
2018-08-11T03:13:58.392Z,17.10
2018-08-11T03:16:26.717Z,17.10
2018-08-11T03:18:54.983Z,17.10
2018-08-11T03:21:23.288Z,17.10
2018-08-11T03:23:51.520Z,17.10
2018-08-11T03:26:19.756Z,17.00
2018-08-11T03:28:48.037Z,17.00
2018-08-11T03:31:16.321Z,17.00
2018-08-11T03:33:44.591Z,17.00
2018-08-11T03:36:12.835Z,16.90
2018-08-11T03:38:41.095Z,16.90
2018-08-11T03:41:09.383Z,16.70
2018-08-11T03:43:37.642Z,16.60
2018-08-11T03:46:07.042Z,16.40
2018-08-11T03:48:35.277Z,16.40
2018-08-11T03:51:03.580Z,16.40
2018-08-11T03:53:32.099Z,16.30
2018-08-11T03:56:00.335Z,16.30
2018-08-11T03:58:28.609Z,16.10
2018-08-11T04:00:56.846Z,16.00
2018-08-11T04:03:25.114Z,15.90
2018-08-11T04:05:53.390Z,15.70
2018-08-11T04:08:21.668Z,15.60
2018-08-11T04:10:49.918Z,15.60
2018-08-11T04:13:18.141Z,15.50
2018-08-11T04:15:46.420Z,15.50
2018-08-11T04:18:14.709Z,15.50
2018-08-11T04:20:42.969Z,15.50
2018-08-11T04:23:11.182Z,15.40
2018-08-11T04:25:39.429Z,15.30
2018-08-11T04:28:07.696Z,15.20
2018-08-11T04:30:35.953Z,15.10
2018-08-11T04:33:04.207Z,15.10
2018-08-11T04:35:32.505Z,15.10
2018-08-11T04:38:00.741Z,15.10
2018-08-11T04:40:29.042Z,15.10
2018-08-11T04:42:57.286Z,15.10
2018-08-11T04:45:25.635Z,15.10
2018-08-11T04:47:53.871Z,15.10
2018-08-11T04:50:22.110Z,15.10
2018-08-11T04:52:50.410Z,15.10
2018-08-11T04:55:18.654Z,15.10
2018-08-11T04:57:46.921Z,15.00
2018-08-11T05:00:15.872Z,15.00
2018-08-11T05:02:44.130Z,15.00
2018-08-11T05:05:12.378Z,15.00
2018-08-11T05:07:40.638Z,15.00
2018-08-11T05:10:09.422Z,15.00
2018-08-11T05:12:37.677Z,15.00
2018-08-11T05:15:06.947Z,15.00
2018-08-11T05:17:35.411Z,15.00
2018-08-11T05:20:03.745Z,15.00
2018-08-11T05:22:32.024Z,15.10
2018-08-11T05:25:00.249Z,14.90
2018-08-11T05:27:28.551Z,14.90
2018-08-11T05:29:56.880Z,15.00
2018-08-11T05:32:25.196Z,15.00
2018-08-11T05:34:53.983Z,15.00
2018-08-11T05:37:22.255Z,15.00
2018-08-11T05:39:50.564Z,15.10
2018-08-11T05:42:18.815Z,15.20
2018-08-11T05:44:47.045Z,15.30
2018-08-11T05:47:15.268Z,15.30
2018-08-11T05:49:43.525Z,15.40
2018-08-11T05:52:11.774Z,15.40
2018-08-11T05:57:14.627Z,15.20
2018-08-11T05:59:42.876Z,15.20
2018-08-11T06:02:11.122Z,15.20
2018-08-11T06:04:39.401Z,15.20
2018-08-11T06:07:07.712Z,15.20
2018-08-11T06:09:36.014Z,15.20
2018-08-11T06:12:04.314Z,15.30
2018-08-11T06:14:32.606Z,15.80
2018-08-11T06:17:00.947Z,16.10
2018-08-11T06:19:29.205Z,16.10
2018-08-11T06:21:57.465Z,16.30
2018-08-11T06:24:25.737Z,17.40
2018-08-11T06:26:53.974Z,18.10
2018-08-11T06:29:22.187Z,19.10
2018-08-11T06:31:50.540Z,19.50
2018-08-11T06:34:18.695Z,20.20
2018-08-11T06:36:46.970Z,19.80
2018-08-11T06:39:15.320Z,19.90
2018-08-11T06:41:44.087Z,21.30
2018-08-11T06:44:12.978Z,22.70
2018-08-11T06:46:41.245Z,23.00
2018-08-11T06:49:09.906Z,22.40
2018-08-11T06:51:38.341Z,21.60
2018-08-11T06:54:06.678Z,21.30
2018-08-11T06:56:35.228Z,20.80
2018-08-11T06:59:03.611Z,21.80
2018-08-11T07:01:32.018Z,22.60
2018-08-11T07:04:00.303Z,23.10
2018-08-11T07:06:28.608Z,24.40
2018-08-11T07:08:56.875Z,24.90
2018-08-11T07:11:25.116Z,24.20
2018-08-11T07:13:53.369Z,23.80
2018-08-11T07:16:21.628Z,24.20
2018-08-11T07:18:49.919Z,23.90
2018-08-11T07:21:18.192Z,23.40
2018-08-11T07:23:46.432Z,23.20
2018-08-11T07:26:14.662Z,22.80
2018-08-11T07:28:42.878Z,23.00
2018-08-11T07:31:11.107Z,23.30
2018-08-11T07:33:39.368Z,23.70
2018-08-11T07:36:08.006Z,23.90
2018-08-11T07:38:36.332Z,24.20
2018-08-11T07:41:04.621Z,24.50
2018-08-11T07:43:32.974Z,23.40
2018-08-11T07:46:01.256Z,23.40
2018-08-11T07:48:29.665Z,23.70
2018-08-11T07:50:57.943Z,24.00
2018-08-11T07:53:26.222Z,24.40
2018-08-11T07:55:55.142Z,24.20
2018-08-11T07:58:23.368Z,23.70
2018-08-11T08:00:51.589Z,23.00
2018-08-11T08:03:19.883Z,22.70
2018-08-11T08:05:48.223Z,22.10
2018-08-11T08:08:16.504Z,21.50
2018-08-11T08:10:44.752Z,21.30
2018-08-11T08:13:12.970Z,21.20
2018-08-11T08:15:41.223Z,21.10
2018-08-11T08:18:09.495Z,21.10
2018-08-11T08:20:37.776Z,21.20
2018-08-11T08:23:06.128Z,21.10
2018-08-11T08:25:34.436Z,20.90
2018-08-11T08:28:02.740Z,20.80
2018-08-11T08:30:31.437Z,21.00
2018-08-11T08:32:59.658Z,21.00
2018-08-11T08:35:27.917Z,20.80
2018-08-11T08:37:56.176Z,20.90
2018-08-11T08:40:24.442Z,21.10
2018-08-11T08:42:52.689Z,21.30
2018-08-11T08:45:20.919Z,21.70
2018-08-11T08:47:49.181Z,21.70
2018-08-11T08:50:17.434Z,21.60
2018-08-11T08:52:45.671Z,21.60
2018-08-11T08:55:13.954Z,21.40
2018-08-11T08:57:42.208Z,21.30
2018-08-11T09:00:10.500Z,21.10
2018-08-11T09:02:38.731Z,21.00
2018-08-11T09:05:07.018Z,20.80
2018-08-11T09:07:35.277Z,20.60
2018-08-11T09:10:03.637Z,20.30
2018-08-11T09:12:31.917Z,20.10
2018-08-11T09:15:00.211Z,19.80
2018-08-11T09:17:28.443Z,19.60
2018-08-11T09:19:56.682Z,19.50
2018-08-11T09:22:24.938Z,19.40
2018-08-11T09:24:53.270Z,19.20
2018-08-11T09:27:21.548Z,18.90
2018-08-11T09:29:49.824Z,18.60
2018-08-11T09:32:18.040Z,18.50
2018-08-11T09:34:46.350Z,18.30
2018-08-11T09:37:14.644Z,18.20
2018-08-11T09:39:42.880Z,18.20
2018-08-11T09:42:11.139Z,18.20
2018-08-11T09:44:39.379Z,18.40
2018-08-11T09:47:07.992Z,18.70
2018-08-11T09:49:36.278Z,18.80
2018-08-11T09:52:04.558Z,18.90
2018-08-11T09:54:32.859Z,19.00
2018-08-11T09:57:01.138Z,19.10
2018-08-11T09:59:29.381Z,19.50
2018-08-11T10:02:03.204Z,20.20
2018-08-11T10:04:31.503Z,20.40
2018-08-11T10:06:59.753Z,20.70
2018-08-11T10:09:28.014Z,20.70
2018-08-11T10:11:56.235Z,20.60
2018-08-11T10:14:24.476Z,20.40
2018-08-11T10:16:52.764Z,20.10
2018-08-11T10:19:21.192Z,19.70
2018-08-11T10:21:49.416Z,19.20
2018-08-11T10:24:18.128Z,19.10
2018-08-11T10:26:46.614Z,18.70
2018-08-11T10:29:14.840Z,18.50
2018-08-11T10:31:43.108Z,18.50
2018-08-11T10:34:11.407Z,18.40
2018-08-11T10:36:39.684Z,18.40
2018-08-11T10:39:10.200Z,18.60
2018-08-11T10:41:38.802Z,18.80
2018-08-11T10:44:07.423Z,19.10
2018-08-11T10:46:35.964Z,19.20
2018-08-11T10:49:04.511Z,19.10
2018-08-11T10:51:32.823Z,19.30
2018-08-11T10:54:01.380Z,19.20
2018-08-11T10:56:29.680Z,19.40
2018-08-11T10:58:57.939Z,19.60
2018-08-11T11:01:26.278Z,19.70
2018-08-11T11:03:54.472Z,19.70
2018-08-11T11:06:23.210Z,19.60
2018-08-11T11:08:51.443Z,19.50
2018-08-11T11:11:19.681Z,19.40
2018-08-11T11:13:47.968Z,19.30
2018-08-11T11:16:16.251Z,19.10
2018-08-11T11:18:44.517Z,18.80
2018-08-11T11:21:12.740Z,18.70
2018-08-11T11:23:40.986Z,18.70
2018-08-11T11:26:09.234Z,18.70
2018-08-11T11:28:37.519Z,18.70
2018-08-11T11:31:05.801Z,18.50
2018-08-11T11:33:34.401Z,18.50
2018-08-11T11:36:02.661Z,18.40
2018-08-11T11:38:31.518Z,18.20
2018-08-11T11:40:59.832Z,18.20
2018-08-11T11:43:28.841Z,18.20
2018-08-11T11:45:57.067Z,18.10
2018-08-11T11:48:25.299Z,18.10
2018-08-11T11:50:53.982Z,18.10
2018-08-11T11:53:22.287Z,18.10
2018-08-11T11:55:50.534Z,18.30
2018-08-11T11:58:18.823Z,18.70
2018-08-11T12:00:47.056Z,19.20
2018-08-11T12:03:15.309Z,19.50
2018-08-11T12:05:43.568Z,19.50
2018-08-11T12:08:12.069Z,19.10
2018-08-11T12:10:40.305Z,18.70
2018-08-11T12:13:08.545Z,18.40
2018-08-11T12:15:36.831Z,18.30
2018-08-11T12:18:06.153Z,18.30
2018-08-11T12:20:34.462Z,18.60
2018-08-11T12:23:02.735Z,18.70
2018-08-11T12:25:31.011Z,19.00
2018-08-11T12:27:59.626Z,19.40
2018-08-11T12:30:27.902Z,19.50
2018-08-11T12:32:56.164Z,19.60
2018-08-11T12:35:24.430Z,19.60
2018-08-11T12:37:52.717Z,19.70
2018-08-11T12:40:21.024Z,20.00
2018-08-11T12:42:49.256Z,20.20
2018-08-11T12:45:17.503Z,20.40
2018-08-11T12:47:45.828Z,20.70
2018-08-11T12:50:14.081Z,20.90
2018-08-11T12:52:42.314Z,21.00
2018-08-11T12:55:10.558Z,21.10
2018-08-11T12:57:38.831Z,21.00
2018-08-11T13:00:08.171Z,21.10
2018-08-11T13:02:36.639Z,21.00
2018-08-11T13:05:05.058Z,21.10
2018-08-11T13:07:35.133Z,21.50
2018-08-11T13:10:03.461Z,21.60
2018-08-11T13:12:32.202Z,21.30
2018-08-11T13:15:00.779Z,21.10
2018-08-11T13:17:29.046Z,21.00
2018-08-11T13:19:57.279Z,21.00
2018-08-11T13:22:25.554Z,20.70
2018-08-11T13:24:53.826Z,20.20
2018-08-11T13:27:22.119Z,19.60
2018-08-11T13:29:50.382Z,19.20
2018-08-11T13:32:18.699Z,19.10
2018-08-11T13:34:46.941Z,19.30
2018-08-11T13:37:15.206Z,19.60
2018-08-11T13:39:49.990Z,19.80
2018-08-11T13:42:18.289Z,20.00
2018-08-11T13:44:46.570Z,20.30
2018-08-11T13:47:15.055Z,20.70
2018-08-11T13:49:43.553Z,21.10
2018-08-11T13:52:12.963Z,21.20
2018-08-11T13:54:41.790Z,21.10
2018-08-11T13:57:11.023Z,20.90
2018-08-11T13:59:39.480Z,20.80
2018-08-11T14:02:07.892Z,20.50
2018-08-11T14:04:36.184Z,20.30
2018-08-11T14:07:04.447Z,19.90
2018-08-11T14:09:32.705Z,19.70
2018-08-11T14:12:01.020Z,19.60
2018-08-11T14:14:29.254Z,19.50
2018-08-11T14:16:57.549Z,19.40
2018-08-11T14:19:25.813Z,19.30
2018-08-11T14:21:54.103Z,19.00
2018-08-11T14:24:22.378Z,18.70
2018-08-11T14:26:50.684Z,18.50
2018-08-11T14:29:18.955Z,18.30
2018-08-11T14:31:47.236Z,18.20
2018-08-11T14:34:15.509Z,18.20
2018-08-11T14:36:43.811Z,18.20
2018-08-11T14:39:12.171Z,18.10
2018-08-11T14:41:40.505Z,18.20
2018-08-11T14:44:08.884Z,18.20
2018-08-11T14:46:37.327Z,18.30
2018-08-11T14:49:06.086Z,18.50
2018-08-11T14:51:35.449Z,18.70
2018-08-11T14:54:03.738Z,18.80
2018-08-11T14:56:32.069Z,18.80
2018-08-11T14:59:00.357Z,18.80
2018-08-11T15:01:29.627Z,18.90
2018-08-11T15:03:57.983Z,18.90
2018-08-11T15:06:26.234Z,19.00
2018-08-11T15:08:54.510Z,19.10
2018-08-11T15:11:22.750Z,19.30
2018-08-11T15:13:51.040Z,19.60
2018-08-11T15:16:19.372Z,19.80
2018-08-11T15:18:47.603Z,20.10
2018-08-11T15:21:15.941Z,20.10
2018-08-11T15:23:44.215Z,20.30
2018-08-11T15:26:12.478Z,20.30
2018-08-11T15:28:40.761Z,20.50
2018-08-11T15:31:09.002Z,20.50
2018-08-11T15:33:37.271Z,20.40
2018-08-11T15:36:05.592Z,20.40
2018-08-11T15:38:34.117Z,20.20
2018-08-11T15:41:02.393Z,20.20
2018-08-11T15:43:30.716Z,20.10
2018-08-11T15:45:59.031Z,20.20
2018-08-11T15:48:27.421Z,20.30
2018-08-11T15:50:55.816Z,20.30
2018-08-11T15:53:24.172Z,20.40
2018-08-11T15:55:53.407Z,20.40
2018-08-11T15:58:22.024Z,20.40
2018-08-11T16:00:58.391Z,20.40
2018-08-11T16:03:26.644Z,20.20
2018-08-11T16:05:54.908Z,19.90
2018-08-11T16:08:23.172Z,19.80
2018-08-11T16:10:51.535Z,19.60
2018-08-11T16:13:19.821Z,19.70
2018-08-11T16:15:48.087Z,19.70
2018-08-11T16:18:16.316Z,19.80
2018-08-11T16:20:44.599Z,20.00
2018-08-11T16:23:13.000Z,20.00
2018-08-11T16:25:41.871Z,20.20
2018-08-11T16:28:10.149Z,20.20
2018-08-11T16:30:39.418Z,20.20
2018-08-11T16:33:07.924Z,20.20
2018-08-11T16:35:36.237Z,20.20
2018-08-11T16:38:04.827Z,20.20
2018-08-11T16:40:33.272Z,20.20
2018-08-11T16:43:01.539Z,20.20
2018-08-11T16:45:29.759Z,20.20
2018-08-11T16:47:58.055Z,19.90
2018-08-11T16:50:26.245Z,19.90
2018-08-11T16:52:55.510Z,19.70
2018-08-11T16:55:23.739Z,19.60
2018-08-11T16:57:52.014Z,19.60
2018-08-11T17:00:20.640Z,19.60
2018-08-11T17:02:49.231Z,19.50
2018-08-11T17:05:17.523Z,19.50
2018-08-11T17:07:45.791Z,19.40
2018-08-11T17:10:14.136Z,19.40
2018-08-11T17:12:42.793Z,19.30
2018-08-11T17:15:11.083Z,19.30
2018-08-11T17:17:39.360Z,19.20
2018-08-11T17:20:08.321Z,19.20
2018-08-11T17:22:36.661Z,19.30
2018-08-11T17:25:05.181Z,19.40
2018-08-11T17:27:33.884Z,19.40
2018-08-11T17:30:02.212Z,19.30
2018-08-11T17:32:30.537Z,19.30
2018-08-11T17:34:58.855Z,19.30
2018-08-11T17:37:27.247Z,19.30
2018-08-11T17:39:55.582Z,19.20
2018-08-11T17:42:23.859Z,19.20
2018-08-11T17:44:52.158Z,19.20
2018-08-11T17:47:21.228Z,19.10
2018-08-11T17:49:49.462Z,18.90
2018-08-11T17:52:30.348Z,18.90
2018-08-11T17:55:00.871Z,18.80
2018-08-11T17:57:29.259Z,18.70
2018-08-11T17:59:57.606Z,18.60
2018-08-11T18:02:26.020Z,18.60
2018-08-11T18:04:55.242Z,18.50
2018-08-11T18:07:23.566Z,18.40
2018-08-11T18:09:51.840Z,18.30
2018-08-11T18:12:20.079Z,18.30
2018-08-11T18:14:48.322Z,18.20
2018-08-11T18:17:16.633Z,18.10
2018-08-11T18:19:45.112Z,18.10
2018-08-11T18:22:13.422Z,18.00
2018-08-11T18:24:41.677Z,17.90
2018-08-11T18:27:09.960Z,17.90
2018-08-11T18:29:38.244Z,17.80
2018-08-11T18:32:06.690Z,17.80
2018-08-11T18:34:35.064Z,17.70
2018-08-11T18:37:03.422Z,17.60
2018-08-11T18:39:31.717Z,17.50
2018-08-11T18:42:00.088Z,17.40
2018-08-11T18:44:28.435Z,17.30
2018-08-11T18:46:56.772Z,17.20
2018-08-11T18:49:25.114Z,17.10
2018-08-11T18:51:53.445Z,17.00
2018-08-11T18:54:22.645Z,17.00
2018-08-11T18:56:50.958Z,16.90
2018-08-11T18:59:19.414Z,16.90
2018-08-11T19:01:47.700Z,16.80
2018-08-11T19:04:16.065Z,16.70
2018-08-11T19:06:45.168Z,16.70
2018-08-11T19:09:13.921Z,16.60
2018-08-11T19:11:42.919Z,16.60
2018-08-11T19:14:11.249Z,16.50
2018-08-11T19:16:39.535Z,16.40
2018-08-11T19:19:07.870Z,16.40
2018-08-11T19:21:36.229Z,16.30
2018-08-11T19:24:04.516Z,16.20
2018-08-11T19:26:32.848Z,16.20
2018-08-11T19:29:01.970Z,16.10
2018-08-11T19:31:30.305Z,16.00
2018-08-11T19:33:58.676Z,16.00
2018-08-11T19:36:27.133Z,15.90
2018-08-11T19:38:55.546Z,15.90
2018-08-11T19:41:23.876Z,15.80
2018-08-11T19:43:52.174Z,15.70
2018-08-11T19:46:20.492Z,15.70
2018-08-11T19:48:48.807Z,15.60
2018-08-11T19:51:17.113Z,15.60
2018-08-11T19:53:45.480Z,15.60
2018-08-11T19:56:13.835Z,15.50
2018-08-11T19:58:42.166Z,15.50
2018-08-11T20:01:10.498Z,15.40
2018-08-11T20:03:38.790Z,15.40
2018-08-11T20:06:07.109Z,15.40
2018-08-11T20:08:35.423Z,15.30
2018-08-11T20:11:03.829Z,15.30
2018-08-11T20:13:32.547Z,15.20
2018-08-11T20:16:00.947Z,15.20
2018-08-11T20:18:30.378Z,15.20
2018-08-11T20:20:59.603Z,15.10
2018-08-11T20:23:27.888Z,15.10
2018-08-11T20:25:56.433Z,15.10
2018-08-11T20:28:24.779Z,15.10
2018-08-11T20:30:53.073Z,15.10
2018-08-11T20:33:21.391Z,15.20
2018-08-11T20:35:49.680Z,15.30
2018-08-11T20:38:18.361Z,15.40
2018-08-11T20:40:59.138Z,15.50
2018-08-11T20:43:27.785Z,15.60
2018-08-11T20:45:56.657Z,15.80
2018-08-11T20:48:25.343Z,15.80
2018-08-11T20:50:53.656Z,15.90
2018-08-11T20:53:21.987Z,16.00
2018-08-11T20:55:50.285Z,16.10
2018-08-11T20:58:18.586Z,16.20
2018-08-11T21:00:46.919Z,16.30
2018-08-11T21:03:15.237Z,16.30
2018-08-11T21:05:43.579Z,16.30
2018-08-11T21:08:11.876Z,16.40
2018-08-11T21:10:40.209Z,16.40
2018-08-11T21:13:08.493Z,16.40
2018-08-11T21:15:36.807Z,16.50
2018-08-11T21:18:05.828Z,16.50
2018-08-11T21:20:34.101Z,16.60
2018-08-11T21:23:02.429Z,16.60
2018-08-11T21:25:30.755Z,16.60
2018-08-11T21:28:00.183Z,16.50
2018-08-11T21:30:28.586Z,16.40
2018-08-11T21:32:56.945Z,16.20
2018-08-11T21:35:25.193Z,16.10
2018-08-11T21:37:53.514Z,16.00
2018-08-11T21:40:21.784Z,16.00
2018-08-11T21:42:50.064Z,16.00
2018-08-11T21:45:18.348Z,15.90
2018-08-11T21:47:46.589Z,15.80
2018-08-11T21:50:14.870Z,15.80
2018-08-11T21:52:43.181Z,15.70
2018-08-11T21:55:11.431Z,15.60
2018-08-11T21:57:39.913Z,15.60
2018-08-11T22:00:19.761Z,15.60
2018-08-11T22:02:48.034Z,15.70
2018-08-11T22:05:16.344Z,15.80
2018-08-11T22:07:44.594Z,15.90
2018-08-11T22:10:12.828Z,16.00
2018-08-11T22:12:41.070Z,16.10
2018-08-11T22:15:10.610Z,16.10
2018-08-11T22:17:39.788Z,16.20
2018-08-11T22:20:07.998Z,16.20
2018-08-11T22:22:36.256Z,16.20
2018-08-11T22:25:05.751Z,16.10
2018-08-11T22:27:33.981Z,16.10
2018-08-11T22:30:02.552Z,16.10
2018-08-11T22:32:31.042Z,16.00
2018-08-11T22:34:59.549Z,16.00
2018-08-11T22:37:27.839Z,16.00
2018-08-11T22:39:56.166Z,16.00
2018-08-11T22:42:24.477Z,16.00
2018-08-11T22:44:53.015Z,16.00
2018-08-11T22:47:22.059Z,16.00
2018-08-11T22:49:50.288Z,16.00
2018-08-11T22:52:18.585Z,16.10
2018-08-11T22:54:46.825Z,16.10
2018-08-11T22:57:15.114Z,16.20
2018-08-11T22:59:43.551Z,16.20
2018-08-11T23:02:11.777Z,16.20
2018-08-11T23:04:40.038Z,16.20
2018-08-11T23:07:08.351Z,16.30
2018-08-11T23:09:36.615Z,16.30
2018-08-11T23:12:04.847Z,16.30
2018-08-11T23:14:33.141Z,16.30
2018-08-11T23:17:01.717Z,16.30
2018-08-11T23:19:30.009Z,16.30
2018-08-11T23:21:58.309Z,16.30
2018-08-11T23:24:26.604Z,16.30
2018-08-11T23:26:54.854Z,16.30
2018-08-11T23:29:23.135Z,16.30
2018-08-11T23:31:51.451Z,16.40
2018-08-11T23:34:19.667Z,16.50
2018-08-11T23:36:47.953Z,16.50
2018-08-11T23:39:16.213Z,16.60
2018-08-11T23:41:44.447Z,16.60
2018-08-11T23:44:12.731Z,16.60
2018-08-11T23:46:40.987Z,16.60
2018-08-11T23:49:09.211Z,16.60
2018-08-11T23:51:37.430Z,16.60
2018-08-11T23:54:05.740Z,16.60
2018-08-11T23:56:34.049Z,16.60
2018-08-11T23:59:02.303Z,16.60
